Time;durP1;ratioP1;P1;durP2;ratioP2;P2;SDS_P1;SDS_P2;PMS_P1;PMS_P2;Temp;Humidity;BMP_temperature;BMP_pressure;BME280_temperature;BME280_humidity;BME280_pressure;Samples;Min_cycle;Max_cycle;Signal;HPM_P1;HPM_P2
2021/01/21 00:01:05;;;;;;;706.90;460.37;;;26.30;2176.00;;;;;;4962193;28;20062;-85
2021/01/21 00:03:33;;;;;;;692.50;447.13;;;26.30;2176.00;;;;;;4961830;28;20030;-85
2021/01/21 00:06:00;;;;;;;644.47;425.13;;;26.30;2176.00;;;;;;4961825;28;20170;-85
2021/01/21 00:08:26;;;;;;;591.97;387.40;;;26.30;2176.00;;;;;;4962082;28;20480;-85
2021/01/21 00:10:51;;;;;;;559.93;367.53;;;26.40;2176.00;;;;;;4961643;28;20038;-86
2021/01/21 00:13:17;;;;;;;561.83;361.53;;;26.30;2176.00;;;;;;4961652;28;20047;-85
2021/01/21 00:15:43;;;;;;;540.47;342.90;;;26.40;2150.40;;;;;;4961598;28;20120;-86
2021/01/21 00:18:08;;;;;;;548.00;346.20;;;26.40;2176.00;;;;;;4961856;28;20033;-86
2021/01/21 00:20:34;;;;;;;529.20;339.07;;;26.40;2150.40;;;;;;4961455;28;20031;-86
2021/01/21 00:23:00;;;;;;;543.33;351.87;;;26.40;2150.40;;;;;;4961761;28;20037;-86
2021/01/21 00:25:26;;;;;;;573.73;366.57;;;26.30;2150.40;;;;;;4961369;28;20031;-86
2021/01/21 00:27:51;;;;;;;552.80;349.27;;;26.20;2150.40;;;;;;4961770;28;20041;-86
2021/01/21 00:30:18;;;;;;;520.60;331.97;;;26.20;2150.40;;;;;;4962088;28;20023;-86
2021/01/21 00:32:43;;;;;;;518.50;316.10;;;26.20;2150.40;;;;;;4961389;28;20034;-86
2021/01/21 00:35:12;;;;;;;515.13;326.53;;;26.20;2176.00;;;;;;4961512;28;20022;-87
2021/01/21 00:37:37;;;;;;;512.03;308.37;;;26.20;2176.00;;;;;;4961985;28;20038;-86
2021/01/21 00:40:04;;;;;;;509.43;330.10;;;26.20;2176.00;;;;;;4979139;28;20121;-87
2021/01/21 00:42:29;;;;;;;508.33;321.27;;;26.10;2176.00;;;;;;4968904;23;20042;-86
2021/01/21 00:44:55;;;;;;;511.23;325.27;;;26.20;2150.40;;;;;;4980699;28;20130;-86
2021/01/21 00:47:21;;;;;;;521.67;322.73;;;26.20;2176.00;;;;;;4981502;28;20400;-85
2021/01/21 00:49:47;;;;;;;543.40;345.10;;;26.10;2150.40;;;;;;4981038;28;20468;-87
2021/01/21 00:52:12;;;;;;;523.00;330.57;;;26.10;2176.00;;;;;;4981527;28;20039;-86
2021/01/21 00:54:38;;;;;;;509.33;314.30;;;26.10;2176.00;;;;;;4981887;28;20556;-87
2021/01/21 00:57:04;;;;;;;519.10;322.30;;;25.80;2201.60;;;;;;4982042;28;20037;-86
2021/01/21 00:59:29;;;;;;;505.47;316.27;;;25.90;2176.00;;;;;;4982166;28;20065;-86
2021/01/21 01:01:55;;;;;;;553.13;343.70;;;25.80;2201.60;;;;;;4985880;28;20061;-86
2021/01/21 01:04:21;;;;;;;538.50;339.67;;;25.80;2201.60;;;;;;4982800;28;20035;-86
2021/01/21 01:06:46;;;;;;;562.93;358.73;;;25.80;2201.60;;;;;;4989875;28;20030;-86
2021/01/21 01:09:13;;;;;;;571.40;358.13;;;25.70;2201.60;;;;;;5014346;28;20037;-87
2021/01/21 01:11:38;;;;;;;602.03;376.20;;;25.60;2201.60;;;;;;5000799;28;20034;-90
2021/01/21 01:14:04;;;;;;;617.87;391.37;;;0.90;2201.60;;;;;;5004164;28;20033;-89
2021/01/21 01:16:30;;;;;;;632.80;397.37;;;25.70;2201.60;;;;;;4981818;28;20494;-87
2021/01/21 01:18:55;;;;;;;560.27;354.73;;;25.80;2201.60;;;;;;4980714;28;20391;-87
2021/01/21 01:21:21;;;;;;;525.03;330.40;;;25.60;2201.60;;;;;;4980457;28;20154;-87
2021/01/21 01:23:47;;;;;;;514.73;310.30;;;25.60;2201.60;;;;;;4979995;28;20088;-86
2021/01/21 01:26:12;;;;;;;489.80;300.37;;;25.70;2201.60;;;;;;4980065;28;20022;-87
2021/01/21 01:28:40;;;;;;;487.23;296.37;;;25.70;2201.60;;;;;;4979733;28;20037;-87
2021/01/21 01:31:06;;;;;;;605.97;389.83;;;25.70;2201.60;;;;;;4980061;28;20026;-86
2021/01/21 01:33:32;;;;;;;632.60;414.83;;;0.80;2201.60;;;;;;4979976;28;20052;-86
2021/01/21 01:35:57;;;;;;;644.10;412.93;;;25.60;2201.60;;;;;;4980027;28;20085;-87
2021/01/21 01:38:23;;;;;;;622.50;399.30;;;0.90;2201.60;;;;;;4980285;28;20373;-87
2021/01/21 01:40:52;;;;;;;610.70;391.83;;;0.90;2201.60;;;;;;4979515;28;20093;-87
2021/01/21 01:43:18;;;;;;;609.57;393.33;;;0.90;2201.60;;;;;;4979750;28;20506;-87
2021/01/21 01:45:44;;;;;;;626.37;409.40;;;0.90;2201.60;;;;;;4979977;28;20432;-87
2021/01/21 01:48:09;;;;;;;615.33;399.67;;;0.70;2201.60;;;;;;4980027;28;20037;-87
2021/01/21 01:50:36;;;;;;;608.57;392.63;;;0.70;2201.60;;;;;;4979412;28;20488;-87
2021/01/21 01:53:02;;;;;;;599.97;389.43;;;0.90;2201.60;;;;;;4979789;28;20045;-87
2021/01/21 01:55:29;;;;;;;624.57;402.13;;;0.80;2201.60;;;;;;4979690;28;20030;-86
2021/01/21 01:57:56;;;;;;;627.63;407.77;;;0.30;2201.60;;;;;;4979386;28;20034;-87
2021/01/21 02:00:22;;;;;;;588.20;383.17;;;0.40;2201.60;;;;;;4985956;28;20030;-87
2021/01/21 02:02:49;;;;;;;596.90;389.47;;;0.50;2201.60;;;;;;4984043;28;20030;-87
2021/01/21 02:05:16;;;;;;;612.80;394.70;;;0.60;2201.60;;;;;;4982620;28;20026;-87
2021/01/21 02:07:43;;;;;;;622.57;405.87;;;0.70;2201.60;;;;;;4997674;28;20037;-88
2021/01/21 02:10:09;;;;;;;627.80;396.73;;;0.70;2201.60;;;;;;4979349;28;20033;-88
2021/01/21 02:12:53;;;;;;;608.27;385.07;;;0.70;2201.60;;;;;;4978886;28;20129;-89
2021/01/21 02:15:37;;;;;;;596.30;378.80;;;0.40;2201.60;;;;;;4979473;28;20026;-87
2021/01/21 02:18:23;;;;;;;578.83;369.33;;;0.30;2201.60;;;;;;4979258;28;20062;-87
2021/01/21 02:20:55;;;;;;;543.97;341.83;;;0.20;2201.60;;;;;;4971563;28;20049;-88
2021/01/21 02:23:54;;;;;;;547.50;349.50;;;12.90;2201.60;;;;;;4979433;28;20022;-87
2021/01/21 02:26:27;;;;;;;568.10;364.47;;;12.90;2201.60;;;;;;4979393;28;20029;-88
2021/01/21 02:29:12;;;;;;;548.28;356.15;;;0.10;2201.60;;;;;;4979305;28;20121;-88
2021/01/21 02:31:49;;;;;;;557.17;351.53;;;0.30;2201.60;;;;;;4979291;28;20049;-88
2021/01/21 02:34:21;;;;;;;531.77;329.37;;;0.30;2201.60;;;;;;4979043;28;20073;-88
2021/01/21 02:36:55;;;;;;;517.97;318.17;;;0.30;2201.60;;;;;;4979068;28;20022;-88
2021/01/21 02:39:23;;;;;;;503.73;313.93;;;0.50;2201.60;;;;;;4979170;28;20109;-88
2021/01/21 02:41:48;;;;;;;502.70;299.63;;;0.50;2201.60;;;;;;4978933;28;20041;-88
2021/01/21 02:44:14;;;;;;;478.37;285.80;;;0.60;2201.60;;;;;;4978818;28;20058;-87
2021/01/21 02:46:42;;;;;;;463.67;280.57;;;0.70;2201.60;;;;;;4979176;28;20476;-87
2021/01/21 02:49:08;;;;;;;469.07;277.83;;;0.70;2201.60;;;;;;4979111;28;20030;-87
2021/01/21 02:51:42;;;;;;;440.53;263.60;;;0.80;2201.60;;;;;;4979390;28;20034;-88
2021/01/21 02:54:32;;;;;;;409.90;244.30;;;0.90;2201.60;;;;;;4978613;28;20066;-85
2021/01/21 02:57:22;;;;;;;371.73;221.33;;;0.90;2201.60;;;;;;4979108;28;20026;-88
2021/01/21 02:59:49;;;;;;;352.93;198.77;;;25.60;2201.60;;;;;;4979363;28;20027;-87
2021/01/21 03:02:18;;;;;;;343.33;195.23;;;0.90;2201.60;;;;;;4996534;28;20033;-87
2021/01/21 03:04:45;;;;;;;372.23;208.13;;;0.90;2201.60;;;;;;4978437;28;20034;-85
2021/01/21 03:07:14;;;;;;;276.80;162.93;;;0.70;2201.60;;;;;;4978931;28;20073;-87
2021/01/21 03:09:45;;;;;;;311.57;180.37;;;0.60;2201.60;;;;;;4979010;28;20089;-87
2021/01/21 03:12:34;;;;;;;292.13;167.10;;;0.50;2201.60;;;;;;4980550;28;20488;-87
2021/01/21 03:15:00;;;;;;;279.60;160.43;;;0.60;2201.60;;;;;;5124891;23;20014;-86
2021/01/21 03:17:28;;;;;;;243.00;144.37;;;0.60;2201.60;;;;;;4979920;28;20126;-87
2021/01/21 03:20:03;;;;;;;234.33;132.17;;;0.60;2201.60;;;;;;5029965;23;20050;-86
2021/01/21 03:22:29;;;;;;;211.53;121.73;;;0.50;2201.60;;;;;;4996216;28;20037;-87
2021/01/21 03:24:55;;;;;;;209.70;117.73;;;0.60;2201.60;;;;;;4979410;28;20034;-89
2021/01/21 03:27:20;;;;;;;201.47;121.87;;;0.60;2201.60;;;;;;4998870;28;20026;-86
2021/01/21 03:29:46;;;;;;;168.63;98.20;;;0.70;2201.60;;;;;;4999603;28;20027;-86
2021/01/21 03:32:12;;;;;;;217.40;122.93;;;0.60;2201.60;;;;;;4984123;28;20166;-86
2021/01/21 03:34:37;;;;;;;213.30;119.80;;;0.60;2201.60;;;;;;5000254;28;20036;-86
2021/01/21 03:37:03;;;;;;;204.23;117.87;;;0.70;2201.60;;;;;;4981103;28;20030;-86
2021/01/21 03:39:29;;;;;;;209.80;121.27;;;0.70;2201.60;;;;;;4982445;28;20604;-87
2021/01/21 03:41:54;;;;;;;207.37;119.37;;;0.70;2201.60;;;;;;4984098;28;20030;-86
2021/01/21 03:44:20;;;;;;;219.53;128.37;;;0.70;2201.60;;;;;;4985275;28;20384;-88
2021/01/21 03:46:46;;;;;;;226.50;133.60;;;0.70;2201.60;;;;;;4983504;28;20018;-86
2021/01/21 03:49:12;;;;;;;222.27;125.47;;;0.70;2201.60;;;;;;4977353;28;20097;-86
2021/01/21 03:51:38;;;;;;;210.97;121.33;;;0.70;2201.60;;;;;;4980135;28;20503;-86
2021/01/21 03:54:04;;;;;;;233.57;135.60;;;0.60;2201.60;;;;;;4977902;28;20053;-86
2021/01/21 03:56:30;;;;;;;246.60;137.60;;;0.60;2201.60;;;;;;4977970;28;20499;-86
2021/01/21 03:58:55;;;;;;;296.37;163.67;;;0.60;2201.60;;;;;;4994883;28;20030;-86
2021/01/21 04:01:21;;;;;;;270.60;157.80;;;0.30;2201.60;;;;;;4995404;28;20036;-86
2021/01/21 04:03:48;;;;;;;293.50;169.77;;;0.50;2201.60;;;;;;4977517;28;20029;-86
2021/01/21 04:06:14;;;;;;;261.30;149.00;;;0.60;2201.60;;;;;;4977246;28;20141;-85
2021/01/21 04:08:39;;;;;;;264.87;150.33;;;0.70;2201.60;;;;;;4979035;28;20050;-86
2021/01/21 04:11:05;;;;;;;272.10;152.20;;;0.70;2201.60;;;;;;4978963;28;20369;-86
2021/01/21 04:13:31;;;;;;;256.27;142.63;;;0.60;2201.60;;;;;;4977791;28;20150;-86
2021/01/21 04:15:56;;;;;;;236.73;139.00;;;0.60;2201.60;;;;;;4977843;28;20018;-85
2021/01/21 04:18:22;;;;;;;222.13;128.60;;;0.60;2201.60;;;;;;4977709;28;20531;-85
2021/01/21 04:20:48;;;;;;;212.03;119.67;;;0.70;2201.60;;;;;;4974464;28;20378;-86
2021/01/21 04:23:13;;;;;;;205.77;119.27;;;0.40;2201.60;;;;;;4974691;28;20023;-87
2021/01/21 04:25:39;;;;;;;213.80;127.50;;;0.40;2201.60;;;;;;4974515;28;20031;-86
2021/01/21 04:28:05;;;;;;;263.83;145.33;;;0.30;2201.60;;;;;;4961342;28;20544;-85
2021/01/21 04:30:31;;;;;;;232.17;131.57;;;0.30;2201.60;;;;;;4977527;28;20034;-86
2021/01/21 04:32:56;;;;;;;226.80;136.63;;;0.40;2201.60;;;;;;4977824;28;20484;-86
2021/01/21 04:35:22;;;;;;;270.80;155.50;;;0.50;2201.60;;;;;;4978302;28;20044;-86
2021/01/21 04:37:48;;;;;;;253.87;144.73;;;0.30;2201.60;;;;;;4978491;28;20547;-86
2021/01/21 04:40:14;;;;;;;263.77;146.47;;;0.20;2201.60;;;;;;4979842;28;20023;-86
2021/01/21 04:42:40;;;;;;;234.77;143.73;;;0.30;2201.60;;;;;;4979442;28;20026;-86
2021/01/21 04:45:07;;;;;;;268.27;147.20;;;0.40;2201.60;;;;;;4981933;28;20133;-86
2021/01/21 04:47:33;;;;;;;297.57;166.40;;;0.50;2201.60;;;;;;4965559;28;20030;-86
2021/01/21 04:50:00;;;;;;;293.20;160.43;;;0.60;2201.60;;;;;;4982062;28;20476;-87
2021/01/21 04:52:28;;;;;;;315.57;173.43;;;0.60;2201.60;;;;;;4981321;28;20137;-86
2021/01/21 04:55:01;;;;;;;323.97;181.53;;;0.60;2201.60;;;;;;4981541;28;20018;-86
2021/01/21 04:57:43;;;;;;;302.23;169.57;;;0.70;2201.60;;;;;;4980335;28;20038;-85
2021/01/21 05:00:09;;;;;;;250.37;144.60;;;0.70;2201.60;;;;;;4981544;28;20023;-86
2021/01/21 05:02:38;;;;;;;247.60;137.80;;;0.70;2201.60;;;;;;4980911;28;20034;-86
2021/01/21 05:05:07;;;;;;;227.37;130.97;;;0.90;2201.60;;;;;;4981716;28;20026;-87
2021/01/21 05:07:33;;;;;;;211.60;123.80;;;0.90;2201.60;;;;;;4998216;28;20030;-86
2021/01/21 05:10:00;;;;;;;222.80;124.27;;;0.90;2201.60;;;;;;4981561;28;20121;-87
2021/01/21 05:12:25;;;;;;;215.50;123.40;;;0.70;2201.60;;;;;;4981778;28;20042;-86
2021/01/21 05:14:51;;;;;;;207.47;118.50;;;0.80;2201.60;;;;;;4982605;28;20113;-86
2021/01/21 05:17:18;;;;;;;179.73;105.90;;;0.70;2201.60;;;;;;4981545;28;20030;-86
2021/01/21 05:19:46;;;;;;;181.70;108.10;;;0.80;2201.60;;;;;;4980395;28;20051;-87
2021/01/21 05:22:15;;;;;;;181.57;106.43;;;0.70;2201.60;;;;;;4981173;28;20053;-85
2021/01/21 05:24:42;;;;;;;188.37;112.67;;;0.80;2201.60;;;;;;4981036;28;20030;-86
2021/01/21 05:27:08;;;;;;;210.87;123.07;;;0.40;2201.60;;;;;;4980469;28;20026;-86
2021/01/21 05:29:35;;;;;;;229.93;135.07;;;0.30;2201.60;;;;;;4998294;28;20468;-86
2021/01/21 05:32:04;;;;;;;207.90;118.93;;;0.40;2201.60;;;;;;4981034;28;20060;-85
2021/01/21 05:34:33;;;;;;;223.50;131.60;;;0.40;2201.60;;;;;;4979730;28;20034;-86
2021/01/21 05:36:59;;;;;;;219.83;125.27;;;0.40;2201.60;;;;;;4980227;28;20064;-86
2021/01/21 05:39:30;;;;;;;272.57;150.23;;;0.30;2201.60;;;;;;4980172;28;20030;-86
2021/01/21 05:41:56;;;;;;;221.93;128.73;;;0.30;2201.60;;;;;;4980937;28;20026;-86
2021/01/21 05:44:22;;;;;;;201.10;114.43;;;0.30;2201.60;;;;;;4979861;28;20542;-86
2021/01/21 05:46:51;;;;;;;190.00;109.53;;;0.20;2201.60;;;;;;4980587;28;20113;-87
2021/01/21 05:49:16;;;;;;;250.37;141.70;;;0.30;2201.60;;;;;;4979731;28;20026;-87
2021/01/21 05:51:42;;;;;;;358.73;195.17;;;0.20;2201.60;;;;;;4980108;28;20041;-86
2021/01/21 05:54:16;;;;;;;487.07;284.93;;;0.20;2201.60;;;;;;4979307;28;20098;-87
2021/01/21 05:56:42;;;;;;;328.63;187.40;;;0.10;2201.60;;;;;;4980305;28;20110;-85
2021/01/21 05:59:09;;;;;;;365.97;206.63;;;0.20;2201.60;;;;;;4980483;28;20050;-85
2021/01/21 06:01:35;;;;;;;398.43;227.67;;;0.20;2201.60;;;;;;4980430;28;20034;-87
2021/01/21 06:04:03;;;;;;;384.27;219.37;;;0.40;2201.60;;;;;;4996988;28;20106;-85
2021/01/21 06:06:29;;;;;;;352.80;198.20;;;0.50;2201.60;;;;;;4979973;28;20026;-84
2021/01/21 06:08:55;;;;;;;352.27;196.77;;;0.40;2201.60;;;;;;4979297;28;20045;-85
2021/01/21 06:11:24;;;;;;;339.13;197.67;;;0.40;2201.60;;;;;;4979529;28;20049;-85
2021/01/21 06:13:52;;;;;;;319.70;189.40;;;0.50;2201.60;;;;;;4979885;28;20026;-85
2021/01/21 06:16:20;;;;;;;312.27;186.93;;;0.40;2201.60;;;;;;4979575;28;20030;-84
2021/01/21 06:19:06;;;;;;;338.37;199.90;;;0.50;2201.60;;;;;;4977318;28;20058;-84
2021/01/21 06:21:36;;;;;;;312.43;184.73;;;0.60;2201.60;;;;;;4986910;28;20041;-84
2021/01/21 06:24:05;;;;;;;349.03;212.27;;;0.80;2201.60;;;;;;4980481;28;20538;-85
2021/01/21 06:26:45;;;;;;;330.50;200.87;;;0.80;2201.60;;;;;;4980248;28;20022;-85
2021/01/21 06:29:15;;;;;;;398.83;240.53;;;0.80;2201.60;;;;;;4979488;28;20031;-85
2021/01/21 06:31:42;;;;;;;349.70;211.63;;;0.70;2201.60;;;;;;4979118;28;20058;-85
2021/01/21 06:34:15;;;;;;;369.40;222.20;;;0.70;2201.60;;;;;;4979762;28;20427;-85
2021/01/21 06:36:43;;;;;;;350.93;205.47;;;0.80;2201.60;;;;;;4979594;28;20031;-85
2021/01/21 06:39:14;;;;;;;359.20;221.33;;;0.90;2201.60;;;;;;4979199;28;20030;-85
2021/01/21 06:41:43;;;;;;;361.97;211.33;;;0.90;2201.60;;;;;;4998291;28;20058;-85
2021/01/21 06:44:13;;;;;;;344.23;207.07;;;0.90;2201.60;;;;;;4990630;28;20018;-84
2021/01/21 06:46:40;;;;;;;354.77;214.87;;;0.90;2201.60;;;;;;4998585;28;20086;-85
2021/01/21 06:49:05;;;;;;;353.13;211.07;;;0.70;2201.60;;;;;;4980479;28;20039;-84
2021/01/21 06:51:31;;;;;;;524.30;331.63;;;0.60;2201.60;;;;;;4972635;28;20082;-84
2021/01/21 06:53:57;;;;;;;535.43;337.97;;;0.40;2201.60;;;;;;4959675;28;20508;-85
2021/01/21 06:56:32;;;;;;;516.30;324.27;;;0.70;2201.60;;;;;;4974963;28;20033;-84
2021/01/21 06:58:58;;;;;;;529.63;339.73;;;0.80;2201.60;;;;;;4975856;28;20118;-84
2021/01/21 07:01:32;;;;;;;597.87;378.90;;;25.60;2201.60;;;;;;4996813;28;20077;-85
2021/01/21 07:04:04;;;;;;;527.33;323.33;;;25.70;2201.60;;;;;;4981781;28;20034;-83
2021/01/21 07:06:52;;;;;;;489.37;296.77;;;25.90;2201.60;;;;;;4980322;28;20038;-85
2021/01/21 07:09:27;;;;;;;519.17;325.80;;;25.80;2201.60;;;;;;5002060;28;20023;-84
2021/01/21 07:11:57;;;;;;;531.20;342.60;;;25.60;2201.60;;;;;;4982015;28;20410;-84
2021/01/21 07:14:32;;;;;;;534.03;339.90;;;25.60;2201.60;;;;;;4976905;28;20057;-85
2021/01/21 07:17:03;;;;;;;519.63;326.33;;;25.70;2201.60;;;;;;4978948;28;20029;-85
2021/01/21 07:19:42;;;;;;;503.20;318.80;;;25.80;2201.60;;;;;;4974426;28;20482;-84
2021/01/21 07:22:20;;;;;;;414.37;242.93;;;26.00;2201.60;;;;;;4965310;28;20081;-84
2021/01/21 07:24:54;;;;;;;366.93;231.23;;;26.20;2201.60;;;;;;4992127;28;20034;-85
2021/01/21 07:27:23;;;;;;;410.50;250.03;;;26.40;2201.60;;;;;;4985581;28;20092;-85
2021/01/21 07:30:10;;;;;;;534.90;349.70;;;26.20;2201.60;;;;;;4980019;28;20038;-85
2021/01/21 07:32:35;;;;;;;493.57;306.83;;;26.10;2201.60;;;;;;4978435;28;20038;-85
2021/01/21 07:35:01;;;;;;;550.40;351.90;;;26.40;2201.60;;;;;;4982623;28;20030;-91
2021/01/21 07:37:29;;;;;;;501.30;325.87;;;26.30;2201.60;;;;;;4981429;28;20109;-90
2021/01/21 07:40:13;;;;;;;503.07;332.10;;;51.20;2227.20;;;;;;4984103;28;20058;-90
2021/01/21 07:42:41;;;;;;;428.20;267.80;;;51.40;2227.20;;;;;;4981037;28;20395;-93
2021/01/21 07:45:22;;;;;;;325.27;204.57;;;51.50;2227.20;;;;;;4979602;28;20026;-93
2021/01/21 07:47:50;;;;;;;294.77;176.00;;;51.50;2227.20;;;;;;4976347;28;20038;-91
2021/01/21 07:50:22;;;;;;;287.27;173.07;;;51.70;2227.20;;;;;;4959879;28;20035;-92
2021/01/21 07:52:50;;;;;;;284.67;167.45;;;51.80;2227.20;;;;;;4974579;28;20412;-93
2021/01/21 07:55:36;;;;;;;319.77;194.77;;;51.90;2201.60;;;;;;4977550;28;20015;-89
2021/01/21 07:58:34;;;;;;;281.60;175.43;;;51.80;2201.60;;;;;;4988877;28;20026;-92
2021/01/21 08:01:08;;;;;;;305.00;187.53;;;51.80;2201.60;;;;;;5001613;28;20018;-93
2021/01/21 08:03:42;;;;;;;268.30;163.00;;;51.90;2227.20;;;;;;4993495;28;20034;-92
2021/01/21 08:06:19;;;;;;;287.20;172.90;;;52.10;2201.60;;;;;;4990116;28;20030;-91
2021/01/21 08:08:50;;;;;;;253.03;157.30;;;76.90;2176.00;;;;;;4971260;28;20126;-87
2021/01/21 08:11:19;;;;;;;296.80;182.30;;;77.10;2150.40;;;;;;4960707;28;20038;-86
2021/01/21 08:13:48;;;;;;;341.90;204.60;;;77.40;2227.20;;;;;;4956095;28;20035;-85
2021/01/21 08:16:16;;;;;;;301.80;186.07;;;77.30;2150.40;;;;;;4966529;28;20023;-87
2021/01/21 08:18:42;;;;;;;305.37;189.97;;;102.40;2073.60;;;;;;4959207;28;20031;-90
2021/01/21 08:21:22;;;;;;;381.43;231.93;;;77.70;2073.60;;;;;;4960745;28;20034;-88
2021/01/21 08:23:52;;;;;;;344.93;214.70;;;77.60;2099.20;;;;;;4961372;28;20038;-89
2021/01/21 08:26:18;;;;;;;337.87;211.27;;;77.70;2099.20;;;;;;4976063;28;20073;-92
2021/01/21 08:28:45;;;;;;;308.93;200.60;;;77.60;2099.20;;;;;;4974317;28;20035;-95
2021/01/21 08:31:11;;;;;;;255.37;161.50;;;77.60;2099.20;;;;;;4964463;28;20519;-88
2021/01/21 08:33:39;;;;;;;251.83;155.23;;;77.60;2099.20;;;;;;4979627;28;20030;-90
2021/01/21 08:36:06;;;;;;;237.97;155.73;;;77.70;2099.20;;;;;;4982341;28;20022;-88
2021/01/21 08:38:35;;;;;;;229.93;143.80;;;77.70;2099.20;;;;;;4975885;28;20058;-92
2021/01/21 08:41:05;;;;;;;201.53;125.50;;;77.60;2099.20;;;;;;4971325;28;20098;-89
2021/01/21 08:43:31;;;;;;;211.27;126.90;;;77.60;2099.20;;;;;;4978555;28;20032;-88
2021/01/21 08:45:57;;;;;;;190.00;121.77;;;77.60;2099.20;;;;;;4983655;28;20468;-92
2021/01/21 08:48:34;;;;;;;222.63;138.13;;;77.70;2099.20;;;;;;4977976;28;20075;-93
2021/01/21 08:51:00;;;;;;;195.63;123.83;;;77.70;2099.20;;;;;;4977437;28;20030;-91
2021/01/21 08:53:30;;;;;;;151.97;97.80;;;77.70;2073.60;;;;;;4980465;28;20109;-90
2021/01/21 08:55:57;;;;;;;180.83;120.27;;;77.70;2099.20;;;;;;4977476;28;20045;-87
2021/01/21 08:58:33;;;;;;;208.93;129.83;;;102.40;2073.60;;;;;;4978868;28;20041;-87
2021/01/21 09:01:03;;;;;;;259.40;164.57;;;102.60;2073.60;;;;;;4961495;28;20027;-89
2021/01/21 09:03:38;;;;;;;251.80;163.60;;;102.70;2073.60;;;;;;4961041;28;20030;-88
2021/01/21 09:06:08;;;;;;;228.37;148.70;;;102.80;2022.40;;;;;;4978199;28;20045;-90
2021/01/21 09:08:57;;;;;;;205.33;131.03;;;103.00;2022.40;;;;;;4980431;28;20069;-90
2021/01/21 09:11:38;;;;;;;214.20;135.07;;;103.00;2022.40;;;;;;4977070;28;20550;-88
2021/01/21 09:14:05;;;;;;;216.83;141.13;;;103.00;2022.40;;;;;;4960417;28;20062;-86
2021/01/21 09:16:49;;;;;;;234.87;147.60;;;103.20;2022.40;;;;;;4967869;28;20129;-87
2021/01/21 09:19:17;;;;;;;208.73;142.80;;;103.30;2048.00;;;;;;4973359;28;20051;-88
2021/01/21 09:22:03;;;;;;;195.53;124.10;;;103.10;1996.80;;;;;;4957222;28;20027;-84
2021/01/21 09:24:30;;;;;;;194.60;126.23;;;128.00;2252.80;;;;;;4948131;28;20032;-85
2021/01/21 09:27:13;;;;;;;209.43;137.00;;;103.30;1996.80;;;;;;4948288;29;20102;-83
2021/01/21 09:29:45;;;;;;;221.90;143.03;;;128.00;2022.40;;;;;;4940182;29;20035;-84
2021/01/21 09:32:11;;;;;;;236.47;154.63;;;128.10;1996.80;;;;;;4939273;28;20058;-84
2021/01/21 09:34:36;;;;;;;193.70;129.27;;;128.20;1996.80;;;;;;4951776;29;20075;-86
2021/01/21 09:37:02;;;;;;;198.17;129.03;;;128.20;1996.80;;;;;;4937756;29;20032;-86
2021/01/21 09:39:28;;;;;;;143.27;97.73;;;128.70;1971.20;;;;;;4937212;29;20035;-87
2021/01/21 09:41:54;;;;;;;120.60;74.53;;;153.70;1971.20;;;;;;4937460;29;20040;-86
2021/01/21 09:44:19;;;;;;;107.23;67.77;;;153.90;1894.40;;;;;;4951431;28;20058;-85
2021/01/21 09:46:45;;;;;;;105.00;68.27;;;154.30;1868.80;;;;;;4969303;28;20089;-87
2021/01/21 09:49:11;;;;;;;99.33;66.47;;;179.20;1843.20;;;;;;4949098;28;20126;-89
2021/01/21 09:51:37;;;;;;;95.93;65.63;;;179.40;1817.60;;;;;;4959352;28;20480;-88
2021/01/21 09:54:03;;;;;;;117.50;76.87;;;179.50;1792.00;;;;;;4959848;28;20037;-90
2021/01/21 09:56:28;;;;;;;128.20;82.53;;;179.70;1792.00;;;;;;4959857;28;20074;-90
2021/01/21 09:58:54;;;;;;;130.83;83.87;;;179.90;1766.40;;;;;;4958908;28;20412;-91
2021/01/21 10:01:20;;;;;;;139.53;88.50;;;180.10;1740.80;;;;;;4948662;29;20137;-83
2021/01/21 10:03:45;;;;;;;143.57;93.67;;;205.00;1689.60;;;;;;4959670;28;20038;-90
2021/01/21 10:06:11;;;;;;;146.43;89.20;;;205.20;1715.20;;;;;;4960932;28;20098;-87
2021/01/21 10:08:37;;;;;;;119.97;81.07;;;205.20;1715.20;;;;;;4959394;28;20043;-89
2021/01/21 10:11:02;;;;;;;125.40;81.20;;;205.10;1689.60;;;;;;4959996;28;20027;-89
2021/01/21 10:13:28;;;;;;;122.67;82.63;;;205.40;1689.60;;;;;;4960107;28;20034;-89
2021/01/21 10:15:54;;;;;;;147.77;94.97;;;205.40;1689.60;;;;;;4954072;29;20156;-90
2021/01/21 10:18:20;;;;;;;132.37;84.97;;;205.60;1638.40;;;;;;4939553;29;20039;-91
2021/01/21 10:20:47;;;;;;;126.50;80.57;;;205.60;1664.00;;;;;;4974880;28;20086;-91
2021/01/21 10:23:13;;;;;;;119.00;82.53;;;230.50;1638.40;;;;;;4959169;28;20122;-89
2021/01/21 10:25:39;;;;;;;119.27;80.53;;;230.70;1587.20;;;;;;4958247;28;20061;-89
2021/01/21 10:28:04;;;;;;;137.13;90.27;;;230.80;1587.20;;;;;;4958817;28;20038;-89
2021/01/21 10:30:30;;;;;;;144.23;95.80;;;230.70;1587.20;;;;;;4958449;28;20031;-89
2021/01/21 10:32:55;;;;;;;143.20;94.07;;;230.60;1561.60;;;;;;4959183;28;20393;-89
2021/01/21 10:35:21;;;;;;;124.50;84.30;;;230.90;1587.20;;;;;;4959012;28;20512;-90
2021/01/21 10:37:47;;;;;;;110.20;77.37;;;231.10;1536.00;;;;;;4958228;28;20084;-88
2021/01/21 10:40:13;;;;;;;100.33;67.40;;;231.20;1536.00;;;;;;4961242;28;20027;-88
2021/01/21 10:42:39;;;;;;;96.50;66.37;;;231.20;1536.00;;;;;;4974392;28;20035;-87
2021/01/21 10:45:05;;;;;;;92.87;63.20;;;231.10;1510.40;;;;;;4978494;28;20022;-86
2021/01/21 10:47:31;;;;;;;98.63;64.27;;;256.20;1484.80;;;;;;4981858;28;20047;-88
2021/01/21 10:49:56;;;;;;;105.47;70.17;;;256.40;1459.20;;;;;;4981098;28;20015;-87
2021/01/21 10:52:25;;;;;;;106.77;70.90;;;256.60;1459.20;;;;;;4985481;28;20035;-87
2021/01/21 10:54:51;;;;;;;122.70;82.03;;;256.50;1433.60;;;;;;4958397;28;20035;-88
2021/01/21 10:57:17;;;;;;;125.37;81.83;;;256.50;1433.60;;;;;;4958651;28;20041;-89
2021/01/21 10:59:43;;;;;;;131.27;83.93;;;256.30;1484.80;;;;;;4958896;28;20023;-91
2021/01/21 11:02:08;;;;;;;126.03;83.20;;;256.40;1459.20;;;;;;4959031;28;20045;-88
2021/01/21 11:04:34;;;;;;;132.93;86.80;;;256.70;1459.20;;;;;;4958272;28;20030;-89
2021/01/21 11:07:00;;;;;;;134.73;87.60;;;256.90;1433.60;;;;;;4958223;28;20035;-90
2021/01/21 11:09:35;;;;;;;191.63;129.73;;;281.70;1433.60;;;;;;4958469;28;20484;-89
2021/01/21 11:12:05;;;;;;;163.98;110.25;;;256.70;1382.40;;;;;;4958927;28;20034;-88
2021/01/21 11:14:31;;;;;;;162.57;106.55;;;256.60;1408.00;;;;;;4958670;28;20073;-87
2021/01/21 11:16:57;;;;;;;144.20;96.47;;;281.60;1433.60;;;;;;4958271;28;20109;-87
2021/01/21 11:19:23;;;;;;;144.13;102.10;;;256.90;1433.60;;;;;;4958217;28;20218;-89
2021/01/21 11:21:51;;;;;;;164.38;111.85;;;256.90;1408.00;;;;;;4960058;28;20053;-85
2021/01/21 11:24:18;;;;;;;173.60;119.13;;;256.80;1459.20;;;;;;4975243;28;20026;-84
2021/01/21 11:26:43;;;;;;;170.63;116.45;;;281.70;1433.60;;;;;;4976234;28;20036;-83
2021/01/21 11:29:09;;;;;;;164.95;110.20;;;282.10;1408.00;;;;;;4972909;28;20101;-84
2021/01/21 11:31:35;;;;;;;180.35;118.43;;;282.50;1382.40;;;;;;4958214;28;20103;-83
2021/01/21 11:34:00;;;;;;;172.07;116.82;;;281.60;1408.00;;;;;;4958468;28;20027;-82
2021/01/21 11:36:26;;;;;;;150.30;106.65;;;281.60;1433.60;;;;;;4968989;28;20439;-83
2021/01/21 11:38:52;;;;;;;156.27;107.35;;;282.00;1433.60;;;;;;4974228;28;20481;-83
2021/01/21 11:41:17;;;;;;;150.05;100.25;;;281.90;1433.60;;;;;;4967367;28;20395;-84
2021/01/21 11:43:43;;;;;;;151.13;103.72;;;282.50;1382.40;;;;;;4972984;28;20085;-84
2021/01/21 11:46:09;;;;;;;145.50;98.38;;;307.50;1356.80;;;;;;4976681;28;20026;-83
2021/01/21 11:48:34;;;;;;;143.68;96.25;;;307.50;1356.80;;;;;;4977065;28;20488;-82
2021/01/21 11:51:00;;;;;;;137.80;93.75;;;307.80;1331.20;;;;;;4976848;28;20029;-82
2021/01/21 11:53:26;;;;;;;149.48;97.82;;;307.70;1331.20;;;;;;4981217;28;20053;-86
2021/01/21 11:55:52;;;;;;;126.35;85.82;;;307.80;1331.20;;;;;;4981367;28;20026;-83
2021/01/21 11:58:17;;;;;;;126.82;87.35;;;307.70;1331.20;;;;;;4982383;28;20121;-83
2021/01/21 12:00:43;;;;;;;132.32;89.82;;;307.80;1356.80;;;;;;4985850;28;20108;-83